sensor_id;sensor_type;location;lat;lon;timestamp;P1;durP1;ratioP1;P2;durP2;ratioP2
58581;SDS011;44361;51.476;5.700;2023-02-28T00:00:45;14.32;;;7.18;;
58581;SDS011;44361;51.476;5.700;2023-02-28T00:03:11;13.57;;;7.10;;
58581;SDS011;44361;51.476;5.700;2023-02-28T00:05:36;15.30;;;7.47;;
58581;SDS011;44361;51.476;5.700;2023-02-28T00:08:02;12.63;;;6.97;;
58581;SDS011;44361;51.476;5.700;2023-02-28T00:10:28;11.32;;;7.57;;
58581;SDS011;44361;51.476;5.700;2023-02-28T00:12:56;18.92;;;7.97;;
58581;SDS011;44361;51.476;5.700;2023-02-28T00:15:25;14.32;;;7.38;;
58581;SDS011;44361;51.476;5.700;2023-02-28T00:17:50;17.60;;;7.30;;
58581;SDS011;44361;51.476;5.700;2023-02-28T00:20:16;14.98;;;7.95;;
58581;SDS011;44361;51.476;5.700;2023-02-28T00:22:44;11.98;;;7.13;;
58581;SDS011;44361;51.476;5.700;2023-02-28T00:25:12;15.65;;;8.63;;
58581;SDS011;44361;51.476;5.700;2023-02-28T00:27:39;15.45;;;8.23;;
58581;SDS011;44361;51.476;5.700;2023-02-28T00:30:06;17.55;;;8.27;;
58581;SDS011;44361;51.476;5.700;2023-02-28T00:32:34;12.40;;;7.72;;
58581;SDS011;44361;51.476;5.700;2023-02-28T00:35:00;18.33;;;8.80;;
58581;SDS011;44361;51.476;5.700;2023-02-28T00:37:27;14.90;;;8.07;;
58581;SDS011;44361;51.476;5.700;2023-02-28T00:39:52;17.35;;;8.20;;
58581;SDS011;44361;51.476;5.700;2023-02-28T00:42:18;12.55;;;7.55;;
58581;SDS011;44361;51.476;5.700;2023-02-28T00:44:44;14.73;;;7.82;;
58581;SDS011;44361;51.476;5.700;2023-02-28T00:47:09;19.77;;;8.88;;
58581;SDS011;44361;51.476;5.700;2023-02-28T00:49:35;15.70;;;8.23;;
58581;SDS011;44361;51.476;5.700;2023-02-28T00:52:00;15.60;;;8.77;;
58581;SDS011;44361;51.476;5.700;2023-02-28T00:54:26;14.60;;;8.77;;
58581;SDS011;44361;51.476;5.700;2023-02-28T00:56:51;17.92;;;8.15;;
58581;SDS011;44361;51.476;5.700;2023-02-28T00:59:17;16.42;;;8.40;;
58581;SDS011;44361;51.476;5.700;2023-02-28T01:01:44;12.55;;;8.68;;
58581;SDS011;44361;51.476;5.700;2023-02-28T01:04:10;15.60;;;8.60;;
58581;SDS011;44361;51.476;5.700;2023-02-28T01:06:36;18.00;;;8.35;;
58581;SDS011;44361;51.476;5.700;2023-02-28T01:09:03;16.67;;;8.13;;
58581;SDS011;44361;51.476;5.700;2023-02-28T01:11:30;13.80;;;8.02;;
58581;SDS011;44361;51.476;5.700;2023-02-28T01:13:55;16.63;;;7.72;;
58581;SDS011;44361;51.476;5.700;2023-02-28T01:16:22;15.70;;;8.73;;
58581;SDS011;44361;51.476;5.700;2023-02-28T01:18:48;16.95;;;8.55;;
58581;SDS011;44361;51.476;5.700;2023-02-28T01:21:14;14.70;;;8.43;;
58581;SDS011;44361;51.476;5.700;2023-02-28T01:23:42;18.30;;;9.20;;
58581;SDS011;44361;51.476;5.700;2023-02-28T01:26:09;16.17;;;8.55;;
58581;SDS011;44361;51.476;5.700;2023-02-28T01:28:37;17.80;;;8.90;;
58581;SDS011;44361;51.476;5.700;2023-02-28T01:31:03;19.98;;;8.52;;
58581;SDS011;44361;51.476;5.700;2023-02-28T01:33:29;18.58;;;8.65;;
58581;SDS011;44361;51.476;5.700;2023-02-28T01:36:36;17.35;;;9.13;;
58581;SDS011;44361;51.476;5.700;2023-02-28T01:38:47;14.63;;;8.25;;
58581;SDS011;44361;51.476;5.700;2023-02-28T01:41:15;16.60;;;8.98;;
58581;SDS011;44361;51.476;5.700;2023-02-28T01:46:12;15.52;;;8.60;;
58581;SDS011;44361;51.476;5.700;2023-02-28T01:48:45;16.90;;;8.90;;
58581;SDS011;44361;51.476;5.700;2023-02-28T01:51:13;15.07;;;8.55;;
58581;SDS011;44361;51.476;5.700;2023-02-28T01:53:44;19.33;;;9.57;;
58581;SDS011;44361;51.476;5.700;2023-02-28T01:56:13;17.40;;;9.07;;
58581;SDS011;44361;51.476;5.700;2023-02-28T01:58:45;15.00;;;9.07;;
58581;SDS011;44361;51.476;5.700;2023-02-28T02:01:12;14.98;;;8.73;;
58581;SDS011;44361;51.476;5.700;2023-02-28T02:03:46;18.43;;;8.90;;
58581;SDS011;44361;51.476;5.700;2023-02-28T02:06:20;16.20;;;8.68;;
58581;SDS011;44361;51.476;5.700;2023-02-28T02:08:47;16.45;;;9.02;;
58581;SDS011;44361;51.476;5.700;2023-02-28T02:11:12;16.90;;;8.65;;
58581;SDS011;44361;51.476;5.700;2023-02-28T02:22:08;14.65;;;8.13;;
58581;SDS011;44361;51.476;5.700;2023-02-28T02:30:38;14.30;;;8.07;;
58581;SDS011;44361;51.476;5.700;2023-02-28T02:33:27;16.30;;;8.25;;
58581;SDS011;44361;51.476;5.700;2023-02-28T02:36:23;17.85;;;8.77;;
58581;SDS011;44361;51.476;5.700;2023-02-28T02:39:02;15.30;;;8.27;;
58581;SDS011;44361;51.476;5.700;2023-02-28T02:41:46;20.02;;;8.50;;
58581;SDS011;44361;51.476;5.700;2023-02-28T02:44:24;18.88;;;9.07;;
58581;SDS011;44361;51.476;5.700;2023-02-28T02:47:02;15.27;;;8.77;;
58581;SDS011;44361;51.476;5.700;2023-02-28T02:49:33;17.58;;;9.55;;
58581;SDS011;44361;51.476;5.700;2023-02-28T02:52:09;14.88;;;8.48;;
58581;SDS011;44361;51.476;5.700;2023-02-28T02:54:38;21.95;;;9.75;;
58581;SDS011;44361;51.476;5.700;2023-02-28T02:57:08;20.65;;;9.40;;
58581;SDS011;44361;51.476;5.700;2023-02-28T02:59:38;17.08;;;8.25;;
58581;SDS011;44361;51.476;5.700;2023-02-28T03:02:06;16.80;;;8.90;;
58581;SDS011;44361;51.476;5.700;2023-02-28T03:04:38;15.80;;;8.48;;
58581;SDS011;44361;51.476;5.700;2023-02-28T03:07:08;18.48;;;8.20;;
58581;SDS011;44361;51.476;5.700;2023-02-28T03:09:34;22.02;;;9.02;;
58581;SDS011;44361;51.476;5.700;2023-02-28T03:12:00;20.88;;;9.13;;
58581;SDS011;44361;51.476;5.700;2023-02-28T03:14:33;17.00;;;8.68;;
58581;SDS011;44361;51.476;5.700;2023-02-28T03:17:38;17.55;;;8.77;;
58581;SDS011;44361;51.476;5.700;2023-02-28T03:23:19;14.02;;;7.90;;
58581;SDS011;44361;51.476;5.700;2023-02-28T03:25:53;17.02;;;7.82;;
58581;SDS011;44361;51.476;5.700;2023-02-28T03:31:13;11.98;;;7.60;;
58581;SDS011;44361;51.476;5.700;2023-02-28T03:33:45;14.05;;;7.70;;
58581;SDS011;44361;51.476;5.700;2023-02-28T03:36:20;14.45;;;7.57;;
58581;SDS011;44361;51.476;5.700;2023-02-28T03:38:58;13.45;;;6.93;;
58581;SDS011;44361;51.476;5.700;2023-02-28T03:41:46;15.75;;;7.93;;
58581;SDS011;44361;51.476;5.700;2023-02-28T03:44:30;15.07;;;7.25;;
58581;SDS011;44361;51.476;5.700;2023-02-28T03:47:10;12.38;;;6.57;;
58581;SDS011;44361;51.476;5.700;2023-02-28T03:49:56;14.48;;;7.18;;
58581;SDS011;44361;51.476;5.700;2023-02-28T03:52:38;13.07;;;6.65;;
58581;SDS011;44361;51.476;5.700;2023-02-28T03:55:11;15.15;;;7.40;;
58581;SDS011;44361;51.476;5.700;2023-02-28T03:57:40;15.38;;;7.22;;
58581;SDS011;44361;51.476;5.700;2023-02-28T04:00:27;12.07;;;6.35;;
58581;SDS011;44361;51.476;5.700;2023-02-28T04:03:05;14.80;;;6.75;;
58581;SDS011;44361;51.476;5.700;2023-02-28T04:05:31;9.35;;;6.03;;
58581;SDS011;44361;51.476;5.700;2023-02-28T04:08:04;12.20;;;6.32;;
58581;SDS011;44361;51.476;5.700;2023-02-28T04:10:30;15.13;;;6.38;;
58581;SDS011;44361;51.476;5.700;2023-02-28T04:12:56;9.13;;;5.18;;
58581;SDS011;44361;51.476;5.700;2023-02-28T04:15:22;9.77;;;5.78;;
58581;SDS011;44361;51.476;5.700;2023-02-28T04:17:49;10.40;;;5.97;;
58581;SDS011;44361;51.476;5.700;2023-02-28T04:20:15;15.02;;;5.55;;
58581;SDS011;44361;51.476;5.700;2023-02-28T04:22:41;9.27;;;5.20;;
58581;SDS011;44361;51.476;5.700;2023-02-28T04:25:06;8.55;;;5.50;;
58581;SDS011;44361;51.476;5.700;2023-02-28T04:27:32;10.65;;;5.30;;
58581;SDS011;44361;51.476;5.700;2023-02-28T04:29:58;12.27;;;5.43;;
58581;SDS011;44361;51.476;5.700;2023-02-28T04:32:23;10.48;;;5.32;;
58581;SDS011;44361;51.476;5.700;2023-02-28T04:34:49;8.65;;;5.00;;
58581;SDS011;44361;51.476;5.700;2023-02-28T04:37:15;8.80;;;5.28;;
58581;SDS011;44361;51.476;5.700;2023-02-28T04:39:40;8.90;;;5.38;;
58581;SDS011;44361;51.476;5.700;2023-02-28T04:42:07;7.07;;;4.40;;
58581;SDS011;44361;51.476;5.700;2023-02-28T04:44:32;10.38;;;5.00;;
58581;SDS011;44361;51.476;5.700;2023-02-28T04:46:58;12.27;;;5.65;;
58581;SDS011;44361;51.476;5.700;2023-02-28T04:49:23;9.43;;;4.60;;
58581;SDS011;44361;51.476;5.700;2023-02-28T04:51:49;12.38;;;5.68;;
58581;SDS011;44361;51.476;5.700;2023-02-28T04:54:14;6.82;;;4.90;;
58581;SDS011;44361;51.476;5.700;2023-02-28T04:56:41;9.55;;;5.50;;
58581;SDS011;44361;51.476;5.700;2023-02-28T04:59:06;10.18;;;5.60;;
58581;SDS011;44361;51.476;5.700;2023-02-28T05:01:32;9.52;;;5.22;;
58581;SDS011;44361;51.476;5.700;2023-02-28T05:04:00;10.82;;;5.07;;
58581;SDS011;44361;51.476;5.700;2023-02-28T05:06:28;10.18;;;5.70;;
58581;SDS011;44361;51.476;5.700;2023-02-28T05:08:55;10.85;;;6.15;;
58581;SDS011;44361;51.476;5.700;2023-02-28T05:11:23;10.85;;;5.20;;
58581;SDS011;44361;51.476;5.700;2023-02-28T05:13:54;8.57;;;5.10;;
58581;SDS011;44361;51.476;5.700;2023-02-28T05:16:20;8.38;;;5.03;;
58581;SDS011;44361;51.476;5.700;2023-02-28T05:18:46;8.50;;;4.88;;
58581;SDS011;44361;51.476;5.700;2023-02-28T05:21:21;9.70;;;5.05;;
58581;SDS011;44361;51.476;5.700;2023-02-28T05:23:54;9.40;;;5.35;;
58581;SDS011;44361;51.476;5.700;2023-02-28T05:26:21;9.23;;;5.22;;
58581;SDS011;44361;51.476;5.700;2023-02-28T05:28:47;10.07;;;5.32;;
58581;SDS011;44361;51.476;5.700;2023-02-28T05:31:12;11.85;;;5.38;;
58581;SDS011;44361;51.476;5.700;2023-02-28T05:33:38;10.15;;;5.28;;
58581;SDS011;44361;51.476;5.700;2023-02-28T05:36:04;10.63;;;5.00;;
58581;SDS011;44361;51.476;5.700;2023-02-28T05:38:30;7.43;;;4.63;;
58581;SDS011;44361;51.476;5.700;2023-02-28T05:40:56;11.57;;;5.63;;
58581;SDS011;44361;51.476;5.700;2023-02-28T05:43:22;11.90;;;4.88;;
58581;SDS011;44361;51.476;5.700;2023-02-28T05:45:48;9.85;;;5.15;;
58581;SDS011;44361;51.476;5.700;2023-02-28T05:48:13;10.93;;;5.40;;
58581;SDS011;44361;51.476;5.700;2023-02-28T05:50:39;10.10;;;5.30;;
58581;SDS011;44361;51.476;5.700;2023-02-28T05:53:05;12.27;;;5.60;;
58581;SDS011;44361;51.476;5.700;2023-02-28T05:55:30;10.90;;;5.30;;
58581;SDS011;44361;51.476;5.700;2023-02-28T05:57:56;8.70;;;5.45;;
58581;SDS011;44361;51.476;5.700;2023-02-28T06:00:21;8.43;;;5.03;;
58581;SDS011;44361;51.476;5.700;2023-02-28T06:02:47;10.50;;;6.13;;
58581;SDS011;44361;51.476;5.700;2023-02-28T06:05:13;13.32;;;7.97;;
58581;SDS011;44361;51.476;5.700;2023-02-28T06:07:41;14.98;;;7.00;;
58581;SDS011;44361;51.476;5.700;2023-02-28T06:10:07;11.77;;;6.82;;
58581;SDS011;44361;51.476;5.700;2023-02-28T06:12:34;8.60;;;5.68;;
58581;SDS011;44361;51.476;5.700;2023-02-28T06:15:00;8.20;;;5.35;;
58581;SDS011;44361;51.476;5.700;2023-02-28T06:17:25;8.88;;;5.03;;
58581;SDS011;44361;51.476;5.700;2023-02-28T06:19:51;11.32;;;5.88;;
58581;SDS011;44361;51.476;5.700;2023-02-28T06:22:16;8.43;;;5.15;;
58581;SDS011;44361;51.476;5.700;2023-02-28T06:24:42;7.32;;;5.00;;
58581;SDS011;44361;51.476;5.700;2023-02-28T06:27:07;9.55;;;5.03;;
58581;SDS011;44361;51.476;5.700;2023-02-28T06:29:33;11.00;;;5.22;;
58581;SDS011;44361;51.476;5.700;2023-02-28T06:31:59;8.00;;;4.70;;
58581;SDS011;44361;51.476;5.700;2023-02-28T06:34:25;8.07;;;5.00;;
58581;SDS011;44361;51.476;5.700;2023-02-28T06:36:50;10.57;;;5.28;;
58581;SDS011;44361;51.476;5.700;2023-02-28T06:39:16;9.75;;;5.82;;
58581;SDS011;44361;51.476;5.700;2023-02-28T06:41:43;7.22;;;4.88;;
58581;SDS011;44361;51.476;5.700;2023-02-28T06:44:17;11.30;;;5.07;;
58581;SDS011;44361;51.476;5.700;2023-02-28T06:46:43;8.80;;;5.10;;
58581;SDS011;44361;51.476;5.700;2023-02-28T06:49:10;12.13;;;5.15;;
58581;SDS011;44361;51.476;5.700;2023-02-28T06:51:37;8.50;;;4.63;;
58581;SDS011;44361;51.476;5.700;2023-02-28T06:54:04;11.38;;;5.32;;
58581;SDS011;44361;51.476;5.700;2023-02-28T06:56:33;8.48;;;4.68;;
58581;SDS011;44361;51.476;5.700;2023-02-28T06:58:59;8.80;;;5.07;;
58581;SDS011;44361;51.476;5.700;2023-02-28T07:01:25;11.30;;;5.25;;
58581;SDS011;44361;51.476;5.700;2023-02-28T07:03:52;7.75;;;4.82;;
58581;SDS011;44361;51.476;5.700;2023-02-28T07:06:19;11.43;;;5.70;;
58581;SDS011;44361;51.476;5.700;2023-02-28T07:08:47;8.13;;;4.93;;
58581;SDS011;44361;51.476;5.700;2023-02-28T07:11:13;9.23;;;4.15;;
58581;SDS011;44361;51.476;5.700;2023-02-28T07:13:39;7.82;;;4.88;;
58581;SDS011;44361;51.476;5.700;2023-02-28T07:16:05;16.15;;;4.93;;
58581;SDS011;44361;51.476;5.700;2023-02-28T07:18:33;9.32;;;5.22;;
58581;SDS011;44361;51.476;5.700;2023-02-28T07:21:01;7.85;;;4.68;;
58581;SDS011;44361;51.476;5.700;2023-02-28T07:23:28;9.40;;;4.93;;
58581;SDS011;44361;51.476;5.700;2023-02-28T07:25:54;12.10;;;5.55;;
58581;SDS011;44361;51.476;5.700;2023-02-28T07:28:19;10.23;;;4.93;;
58581;SDS011;44361;51.476;5.700;2023-02-28T07:30:45;8.32;;;4.47;;
58581;SDS011;44361;51.476;5.700;2023-02-28T07:33:10;11.85;;;4.63;;
58581;SDS011;44361;51.476;5.700;2023-02-28T07:35:36;9.15;;;4.45;;
58581;SDS011;44361;51.476;5.700;2023-02-28T07:38:02;9.88;;;4.72;;
58581;SDS011;44361;51.476;5.700;2023-02-28T07:40:28;7.43;;;3.60;;
58581;SDS011;44361;51.476;5.700;2023-02-28T07:42:54;8.82;;;3.85;;
58581;SDS011;44361;51.476;5.700;2023-02-28T07:45:19;8.60;;;4.10;;
58581;SDS011;44361;51.476;5.700;2023-02-28T07:47:45;4.75;;;3.10;;
58581;SDS011;44361;51.476;5.700;2023-02-28T07:50:13;4.15;;;3.35;;
58581;SDS011;44361;51.476;5.700;2023-02-28T07:52:39;5.82;;;3.25;;
58581;SDS011;44361;51.476;5.700;2023-02-28T07:55:06;7.57;;;3.50;;
58581;SDS011;44361;51.476;5.700;2023-02-28T07:57:32;7.28;;;3.45;;
58581;SDS011;44361;51.476;5.700;2023-02-28T07:59:58;5.78;;;3.70;;
58581;SDS011;44361;51.476;5.700;2023-02-28T08:02:23;7.70;;;3.40;;
58581;SDS011;44361;51.476;5.700;2023-02-28T08:04:49;5.05;;;3.22;;
58581;SDS011;44361;51.476;5.700;2023-02-28T08:07:16;4.97;;;2.53;;
58581;SDS011;44361;51.476;5.700;2023-02-28T08:09:42;5.55;;;3.15;;
58581;SDS011;44361;51.476;5.700;2023-02-28T08:12:09;4.57;;;2.75;;
58581;SDS011;44361;51.476;5.700;2023-02-28T08:14:35;3.47;;;2.72;;
58581;SDS011;44361;51.476;5.700;2023-02-28T08:17:01;5.65;;;2.97;;
58581;SDS011;44361;51.476;5.700;2023-02-28T08:19:27;7.78;;;2.95;;
58581;SDS011;44361;51.476;5.700;2023-02-28T08:21:53;4.45;;;2.97;;
58581;SDS011;44361;51.476;5.700;2023-02-28T08:24:19;5.30;;;2.92;;
58581;SDS011;44361;51.476;5.700;2023-02-28T08:26:45;7.65;;;3.25;;
58581;SDS011;44361;51.476;5.700;2023-02-28T08:29:10;7.55;;;3.42;;
58581;SDS011;44361;51.476;5.700;2023-02-28T08:31:36;4.60;;;3.40;;
58581;SDS011;44361;51.476;5.700;2023-02-28T08:34:08;4.57;;;3.00;;
58581;SDS011;44361;51.476;5.700;2023-02-28T08:36:36;6.75;;;3.03;;
58581;SDS011;44361;51.476;5.700;2023-02-28T08:39:02;4.88;;;2.70;;
58581;SDS011;44361;51.476;5.700;2023-02-28T08:41:28;6.25;;;2.53;;
58581;SDS011;44361;51.476;5.700;2023-02-28T08:43:53;5.78;;;2.33;;
58581;SDS011;44361;51.476;5.700;2023-02-28T08:46:19;4.68;;;2.15;;
58581;SDS011;44361;51.476;5.700;2023-02-28T08:48:45;5.07;;;2.60;;
58581;SDS011;44361;51.476;5.700;2023-02-28T08:51:14;3.55;;;2.00;;
58581;SDS011;44361;51.476;5.700;2023-02-28T08:53:44;5.55;;;2.30;;
58581;SDS011;44361;51.476;5.700;2023-02-28T08:56:11;5.75;;;2.35;;
58581;SDS011;44361;51.476;5.700;2023-02-28T08:58:38;3.13;;;1.70;;
58581;SDS011;44361;51.476;5.700;2023-02-28T09:01:12;3.95;;;2.33;;
58581;SDS011;44361;51.476;5.700;2023-02-28T09:03:40;5.30;;;2.47;;
58581;SDS011;44361;51.476;5.700;2023-02-28T09:06:11;3.83;;;2.00;;
58581;SDS011;44361;51.476;5.700;2023-02-28T09:08:37;4.53;;;1.92;;
58581;SDS011;44361;51.476;5.700;2023-02-28T09:11:03;6.50;;;2.35;;
58581;SDS011;44361;51.476;5.700;2023-02-28T09:13:29;6.10;;;2.63;;
58581;SDS011;44361;51.476;5.700;2023-02-28T09:15:57;3.13;;;1.95;;
58581;SDS011;44361;51.476;5.700;2023-02-28T09:18:24;3.47;;;1.70;;
58581;SDS011;44361;51.476;5.700;2023-02-28T09:20:51;4.78;;;1.65;;
58581;SDS011;44361;51.476;5.700;2023-02-28T09:23:16;3.22;;;1.60;;
58581;SDS011;44361;51.476;5.700;2023-02-28T09:26:00;4.85;;;2.30;;
58581;SDS011;44361;51.476;5.700;2023-02-28T09:28:26;2.88;;;1.52;;
58581;SDS011;44361;51.476;5.700;2023-02-28T09:30:53;3.20;;;1.40;;
58581;SDS011;44361;51.476;5.700;2023-02-28T09:33:19;5.47;;;1.42;;
58581;SDS011;44361;51.476;5.700;2023-02-28T09:35:46;1.90;;;1.50;;
58581;SDS011;44361;51.476;5.700;2023-02-28T09:38:13;5.85;;;1.75;;
58581;SDS011;44361;51.476;5.700;2023-02-28T09:41:00;3.92;;;1.75;;
58581;SDS011;44361;51.476;5.700;2023-02-28T09:43:28;2.03;;;1.30;;
58581;SDS011;44361;51.476;5.700;2023-02-28T09:46:05;5.60;;;1.55;;
58581;SDS011;44361;51.476;5.700;2023-02-28T09:48:39;5.55;;;2.03;;
58581;SDS011;44361;51.476;5.700;2023-02-28T09:53:49;3.95;;;1.52;;
58581;SDS011;44361;51.476;5.700;2023-02-28T09:56:22;4.00;;;1.42;;
58581;SDS011;44361;51.476;5.700;2023-02-28T09:59:00;2.78;;;1.17;;
58581;SDS011;44361;51.476;5.700;2023-02-28T10:01:34;1.63;;;1.20;;
58581;SDS011;44361;51.476;5.700;2023-02-28T10:06:44;3.35;;;1.42;;
58581;SDS011;44361;51.476;5.700;2023-02-28T10:09:15;2.80;;;1.60;;
58581;SDS011;44361;51.476;5.700;2023-02-28T10:11:47;2.53;;;1.48;;
58581;SDS011;44361;51.476;5.700;2023-02-28T10:14:16;2.65;;;1.48;;
58581;SDS011;44361;51.476;5.700;2023-02-28T10:16:48;2.53;;;1.20;;
58581;SDS011;44361;51.476;5.700;2023-02-28T10:22:10;2.33;;;1.23;;
58581;SDS011;44361;51.476;5.700;2023-02-28T10:24:56;3.00;;;1.40;;
58581;SDS011;44361;51.476;5.700;2023-02-28T10:27:28;2.67;;;1.45;;
58581;SDS011;44361;51.476;5.700;2023-02-28T10:29:57;2.50;;;1.30;;
58581;SDS011;44361;51.476;5.700;2023-02-28T10:32:26;3.60;;;1.70;;
58581;SDS011;44361;51.476;5.700;2023-02-28T10:34:59;2.50;;;1.50;;
58581;SDS011;44361;51.476;5.700;2023-02-28T10:37:31;7.93;;;1.33;;
58581;SDS011;44361;51.476;5.700;2023-02-28T10:40:03;2.92;;;1.27;;
58581;SDS011;44361;51.476;5.700;2023-02-28T10:42:31;2.25;;;1.23;;
58581;SDS011;44361;51.476;5.700;2023-02-28T10:47:54;2.85;;;1.25;;
58581;SDS011;44361;51.476;5.700;2023-02-28T10:50:39;2.25;;;1.10;;
58581;SDS011;44361;51.476;5.700;2023-02-28T10:56:02;3.30;;;1.30;;
58581;SDS011;44361;51.476;5.700;2023-02-28T11:03:48;1.63;;;1.23;;
58581;SDS011;44361;51.476;5.700;2023-02-28T11:06:21;2.40;;;1.10;;
58581;SDS011;44361;51.476;5.700;2023-02-28T11:08:54;1.90;;;1.17;;
58581;SDS011;44361;51.476;5.700;2023-02-28T11:11:22;3.73;;;1.70;;
58581;SDS011;44361;51.476;5.700;2023-02-28T11:13:58;4.40;;;1.30;;
58581;SDS011;44361;51.476;5.700;2023-02-28T11:16:35;1.60;;;1.30;;
58581;SDS011;44361;51.476;5.700;2023-02-28T11:19:02;2.38;;;1.23;;
58581;SDS011;44361;51.476;5.700;2023-02-28T11:21:31;2.03;;;1.33;;
58581;SDS011;44361;51.476;5.700;2023-02-28T11:24:02;1.88;;;1.23;;
58581;SDS011;44361;51.476;5.700;2023-02-28T11:26:41;3.03;;;1.70;;
58581;SDS011;44361;51.476;5.700;2023-02-28T11:29:17;4.70;;;1.60;;
58581;SDS011;44361;51.476;5.700;2023-02-28T11:31:45;5.70;;;2.20;;
58581;SDS011;44361;51.476;5.700;2023-02-28T11:34:27;2.75;;;2.17;;
58581;SDS011;44361;51.476;5.700;2023-02-28T11:36:56;2.88;;;1.77;;
58581;SDS011;44361;51.476;5.700;2023-02-28T11:39:24;3.17;;;2.00;;
58581;SDS011;44361;51.476;5.700;2023-02-28T11:41:58;4.32;;;1.88;;
58581;SDS011;44361;51.476;5.700;2023-02-28T11:44:36;2.03;;;1.60;;
58581;SDS011;44361;51.476;5.700;2023-02-28T11:47:17;4.50;;;1.65;;
58581;SDS011;44361;51.476;5.700;2023-02-28T11:52:45;2.35;;;1.60;;
58581;SDS011;44361;51.476;5.700;2023-02-28T12:05:54;3.08;;;1.63;;
58581;SDS011;44361;51.476;5.700;2023-02-28T12:08:41;2.13;;;1.75;;
58581;SDS011;44361;51.476;5.700;2023-02-28T12:11:40;3.22;;;1.70;;
58581;SDS011;44361;51.476;5.700;2023-02-28T12:19:54;4.35;;;1.75;;
58581;SDS011;44361;51.476;5.700;2023-02-28T12:28:01;2.20;;;1.40;;
58581;SDS011;44361;51.476;5.700;2023-02-28T12:30:28;2.35;;;1.25;;
58581;SDS011;44361;51.476;5.700;2023-02-28T12:33:08;3.28;;;1.70;;
58581;SDS011;44361;51.476;5.700;2023-02-28T12:35:40;3.30;;;1.38;;
58581;SDS011;44361;51.476;5.700;2023-02-28T12:38:16;6.25;;;1.70;;
58581;SDS011;44361;51.476;5.700;2023-02-28T12:40:54;3.65;;;1.50;;
58581;SDS011;44361;51.476;5.700;2023-02-28T12:43:27;2.58;;;1.42;;
58581;SDS011;44361;51.476;5.700;2023-02-28T12:46:02;3.80;;;1.70;;
58581;SDS011;44361;51.476;5.700;2023-02-28T12:48:35;3.45;;;1.60;;
58581;SDS011;44361;51.476;5.700;2023-02-28T12:51:05;3.22;;;1.73;;
58581;SDS011;44361;51.476;5.700;2023-02-28T12:53:46;2.20;;;1.33;;
58581;SDS011;44361;51.476;5.700;2023-02-28T12:59:45;3.38;;;1.70;;
58581;SDS011;44361;51.476;5.700;2023-02-28T13:02:33;5.22;;;1.60;;
58581;SDS011;44361;51.476;5.700;2023-02-28T13:10:11;4.10;;;1.90;;
58581;SDS011;44361;51.476;5.700;2023-02-28T13:12:58;3.03;;;1.70;;
58581;SDS011;44361;51.476;5.700;2023-02-28T13:15:30;3.05;;;1.48;;
58581;SDS011;44361;51.476;5.700;2023-02-28T13:18:00;3.83;;;1.40;;
58581;SDS011;44361;51.476;5.700;2023-02-28T13:20:27;2.95;;;1.70;;
58581;SDS011;44361;51.476;5.700;2023-02-28T13:22:58;3.35;;;1.60;;
58581;SDS011;44361;51.476;5.700;2023-02-28T13:28:12;4.68;;;1.85;;
58581;SDS011;44361;51.476;5.700;2023-02-28T13:31:00;3.97;;;1.75;;
58581;SDS011;44361;51.476;5.700;2023-02-28T13:33:34;4.82;;;1.98;;
58581;SDS011;44361;51.476;5.700;2023-02-28T13:36:22;6.90;;;1.80;;
58581;SDS011;44361;51.476;5.700;2023-02-28T13:38:48;4.95;;;2.75;;
58581;SDS011;44361;51.476;5.700;2023-02-28T13:43:59;2.58;;;1.45;;
58581;SDS011;44361;51.476;5.700;2023-02-28T13:46:26;3.33;;;1.80;;
58581;SDS011;44361;51.476;5.700;2023-02-28T13:48:53;3.10;;;1.83;;
58581;SDS011;44361;51.476;5.700;2023-02-28T13:57:22;2.60;;;1.67;;
58581;SDS011;44361;51.476;5.700;2023-02-28T14:05:06;3.72;;;1.67;;
58581;SDS011;44361;51.476;5.700;2023-02-28T14:07:47;3.28;;;2.00;;
58581;SDS011;44361;51.476;5.700;2023-02-28T14:10:21;2.97;;;1.90;;
58581;SDS011;44361;51.476;5.700;2023-02-28T14:13:40;3.28;;;1.90;;
58581;SDS011;44361;51.476;5.700;2023-02-28T14:16:09;2.92;;;2.03;;
58581;SDS011;44361;51.476;5.700;2023-02-28T14:18:40;3.83;;;2.10;;
58581;SDS011;44361;51.476;5.700;2023-02-28T14:26:20;3.90;;;2.30;;
58581;SDS011;44361;51.476;5.700;2023-02-28T14:29:02;2.53;;;1.70;;
58581;SDS011;44361;51.476;5.700;2023-02-28T14:34:51;2.90;;;2.38;;
58581;SDS011;44361;51.476;5.700;2023-02-28T14:37:23;3.47;;;2.28;;
58581;SDS011;44361;51.476;5.700;2023-02-28T14:39:55;4.82;;;2.13;;
58581;SDS011;44361;51.476;5.700;2023-02-28T14:42:28;3.30;;;2.17;;
58581;SDS011;44361;51.476;5.700;2023-02-28T14:44:57;4.97;;;2.28;;
58581;SDS011;44361;51.476;5.700;2023-02-28T14:47:23;4.75;;;1.80;;
58581;SDS011;44361;51.476;5.700;2023-02-28T14:49:53;4.50;;;2.28;;
58581;SDS011;44361;51.476;5.700;2023-02-28T14:52:20;3.50;;;1.80;;
58581;SDS011;44361;51.476;5.700;2023-02-28T14:54:53;7.07;;;2.00;;
58581;SDS011;44361;51.476;5.700;2023-02-28T14:57:21;3.00;;;2.00;;
58581;SDS011;44361;51.476;5.700;2023-02-28T15:00:03;3.58;;;2.00;;
58581;SDS011;44361;51.476;5.700;2023-02-28T15:02:35;3.50;;;2.08;;
58581;SDS011;44361;51.476;5.700;2023-02-28T15:10:23;2.78;;;1.60;;
58581;SDS011;44361;51.476;5.700;2023-02-28T15:13:07;5.30;;;2.10;;
58581;SDS011;44361;51.476;5.700;2023-02-28T15:18:04;2.90;;;1.90;;
58581;SDS011;44361;51.476;5.700;2023-02-28T15:20:32;3.28;;;1.90;;
58581;SDS011;44361;51.476;5.700;2023-02-28T15:22:59;3.70;;;2.05;;
58581;SDS011;44361;51.476;5.700;2023-02-28T15:25:25;4.13;;;1.98;;
58581;SDS011;44361;51.476;5.700;2023-02-28T15:27:53;3.45;;;1.80;;
58581;SDS011;44361;51.476;5.700;2023-02-28T15:30:21;4.15;;;1.95;;
58581;SDS011;44361;51.476;5.700;2023-02-28T15:33:02;5.95;;;2.13;;
58581;SDS011;44361;51.476;5.700;2023-02-28T15:35:30;3.40;;;1.80;;
58581;SDS011;44361;51.476;5.700;2023-02-28T15:38:01;4.05;;;1.95;;
58581;SDS011;44361;51.476;5.700;2023-02-28T15:40:51;6.32;;;2.35;;
58581;SDS011;44361;51.476;5.700;2023-02-28T15:46:04;7.22;;;2.90;;
58581;SDS011;44361;51.476;5.700;2023-02-28T15:48:51;6.88;;;2.78;;
58581;SDS011;44361;51.476;5.700;2023-02-28T15:51:20;5.00;;;1.88;;
58581;SDS011;44361;51.476;5.700;2023-02-28T15:56:43;6.90;;;2.40;;
58581;SDS011;44361;51.476;5.700;2023-02-28T15:59:15;3.00;;;2.17;;
58581;SDS011;44361;51.476;5.700;2023-02-28T16:02:01;4.75;;;2.10;;
58581;SDS011;44361;51.476;5.700;2023-02-28T16:07:34;3.30;;;1.95;;
58581;SDS011;44361;51.476;5.700;2023-02-28T16:10:04;3.67;;;2.05;;
58581;SDS011;44361;51.476;5.700;2023-02-28T16:12:32;4.97;;;1.88;;
58581;SDS011;44361;51.476;5.700;2023-02-28T16:15:00;2.45;;;1.90;;
58581;SDS011;44361;51.476;5.700;2023-02-28T16:17:34;2.75;;;1.90;;
58581;SDS011;44361;51.476;5.700;2023-02-28T16:20:05;2.47;;;1.77;;
58581;SDS011;44361;51.476;5.700;2023-02-28T16:22:42;3.72;;;2.00;;
58581;SDS011;44361;51.476;5.700;2023-02-28T16:25:11;7.85;;;2.20;;
58581;SDS011;44361;51.476;5.700;2023-02-28T16:27:37;3.60;;;2.20;;
58581;SDS011;44361;51.476;5.700;2023-02-28T16:30:04;4.55;;;2.28;;
58581;SDS011;44361;51.476;5.700;2023-02-28T16:32:31;2.53;;;2.00;;
58581;SDS011;44361;51.476;5.700;2023-02-28T16:35:00;3.50;;;2.22;;
58581;SDS011;44361;51.476;5.700;2023-02-28T16:37:26;7.13;;;1.98;;
58581;SDS011;44361;51.476;5.700;2023-02-28T16:39:52;4.63;;;2.15;;
58581;SDS011;44361;51.476;5.700;2023-02-28T16:42:23;3.42;;;1.83;;
58581;SDS011;44361;51.476;5.700;2023-02-28T16:44:51;4.60;;;2.40;;
58581;SDS011;44361;51.476;5.700;2023-02-28T16:47:17;4.30;;;2.20;;
58581;SDS011;44361;51.476;5.700;2023-02-28T16:49:43;3.92;;;2.50;;
58581;SDS011;44361;51.476;5.700;2023-02-28T16:52:09;3.35;;;2.08;;
58581;SDS011;44361;51.476;5.700;2023-02-28T16:54:36;3.03;;;2.25;;
58581;SDS011;44361;51.476;5.700;2023-02-28T16:57:02;4.50;;;2.40;;